Time;durP1;ratioP1;P1;durP2;ratioP2;P2;SDS_P1;SDS_P2;PMS_P1;PMS_P2;Temp;Humidity;BMP_temperature;BMP_pressure;BME280_temperature;BME280_humidity;BME280_pressure;Samples;Min_cycle;Max_cycle;Signal;HPM_P1;HPM_P2
2022/06/15 00:01:06;;;;;;;;;3.00;3.00;;;;;16.99;59.84;102026.69;5030330;28;9715;-65
2022/06/15 00:03:36;;;;;;;;;3.00;3.00;;;;;17.00;59.76;102022.06;5030444;28;8822;-66
2022/06/15 00:06:04;;;;;;;;;2.33;2.33;;;;;17.00;59.92;102025.63;5023574;28;9770;-65
2022/06/15 00:08:30;;;;;;;;;3.00;3.00;;;;;17.00;59.76;102024.78;5029312;28;8991;-64
2022/06/15 00:10:56;;;;;;;;;5.25;5.25;;;;;16.99;59.75;102031.28;5013831;28;8872;-66
2022/06/15 00:13:23;;;;;;;;;3.00;3.00;;;;;17.02;59.65;102028.16;5012355;28;8911;-65
2022/06/15 00:15:49;;;;;;;;;3.00;2.00;;;;;17.04;59.50;102026.06;5027781;28;8994;-66
2022/06/15 00:18:16;;;;;;;;;3.67;3.00;;;;;16.93;60.23;102029.38;5021293;28;9016;-66
2022/06/15 00:20:42;;;;;;;;;1.00;1.00;;;;;16.86;60.01;102023.97;5018441;28;8936;-66
2022/06/15 00:23:09;;;;;;;;;3.67;3.33;;;;;16.88;60.04;102026.47;5018989;28;9056;-67
2022/06/15 00:25:36;;;;;;;;;4.00;3.67;;;;;16.80;60.21;102024.78;5030473;28;9046;-65
2022/06/15 00:28:02;;;;;;;;;3.33;3.33;;;;;16.79;60.40;102021.22;5030385;28;9235;-66
2022/06/15 00:30:29;;;;;;;;;4.00;3.00;;;;;16.80;60.30;102030.22;5003416;28;8930;-65
2022/06/15 00:32:55;;;;;;;;;5.50;3.00;;;;;16.80;60.32;102022.88;5030475;28;8841;-66
2022/06/15 00:35:22;;;;;;;;;3.00;3.00;;;;;16.83;59.70;102028.97;5024928;28;8919;-65
2022/06/15 00:37:48;;;;;;;;;3.00;3.00;;;;;16.79;60.06;102026.66;5018649;28;9569;-68
2022/06/15 00:40:15;;;;;;;;;2.00;2.00;;;;;16.79;60.36;102021.22;5023052;28;8833;-65
2022/06/15 00:42:41;;;;;;;;;4.67;4.67;;;;;16.70;60.24;102021.59;5029538;28;8849;-66
2022/06/15 00:45:08;;;;;;;;;3.00;2.00;;;;;16.72;60.59;102022.22;5004550;28;8858;-66
2022/06/15 00:47:39;;;;;;;;;1.75;1.75;;;;;16.72;60.22;102025.75;5029893;28;9027;-65
2022/06/15 00:50:20;;;;;;;;;2.50;2.50;;;;;16.65;60.49;102018.63;5030379;28;8951;-66
2022/06/15 00:52:56;;;;;;;;;2.67;2.67;;;;;16.59;60.54;102020.31;5021593;28;8833;-66
2022/06/15 00:55:27;;;;;;;;;6.25;3.50;;;;;16.55;60.75;102017.16;5008813;28;8965;-65
2022/06/15 00:57:54;;;;;;;;;5.00;5.00;;;;;16.54;60.40;102018.22;5002325;28;8826;-66
2022/06/15 01:00:22;;;;;;;;;4.33;3.00;;;;;16.51;60.84;102015.06;5023974;28;9259;-65
2022/06/15 01:02:50;;;;;;;;;3.67;3.67;;;;;16.48;60.87;102015.47;5028499;28;8968;-66
2022/06/15 01:05:21;;;;;;;;;1.00;1.00;;;;;16.49;61.07;102017.16;5022927;28;9736;-66
2022/06/15 01:08:16;;;;;;;;;2.00;2.00;;;;;16.46;60.76;102009.41;5034119;28;9000;-66
2022/06/15 01:11:02;;;;;;;;;3.00;3.00;;;;;16.40;60.77;102011.03;5027722;28;8959;-68
2022/06/15 01:14:03;;;;;;;;;3.67;3.33;;;;;16.32;61.22;102014.78;5010412;28;9082;-68
2022/06/15 01:16:39;;;;;;;;;4.33;4.33;;;;;16.36;61.53;102004.34;5027129;28;9184;-68
2022/06/15 01:19:14;;;;;;;;;3.00;3.00;;;;;16.40;61.12;102007.50;5015985;28;9000;-66
2022/06/15 01:21:52;;;;;;;;;3.00;3.00;;;;;16.44;61.05;102008.75;5033925;28;9066;-66
2022/06/15 01:24:42;;;;;;;;;2.00;2.00;;;;;16.48;60.87;102001.88;5030503;28;8983;-66
2022/06/15 01:27:26;;;;;;;;;1.33;1.33;;;;;16.50;60.79;102006.06;4997291;28;8997;-66
2022/06/15 01:30:20;;;;;;;;;2.00;2.00;;;;;16.50;61.32;102005.22;5027530;28;8995;-66
2022/06/15 01:33:24;;;;;;;;;3.00;1.00;;;;;16.53;61.18;102002.13;5015513;28;8869;-65
2022/06/15 01:36:23;;;;;;;;;3.67;3.67;;;;;16.53;61.37;101999.41;5013114;28;9050;-65
2022/06/15 01:39:10;;;;;;;;;2.00;2.00;;;;;16.53;61.37;101996.69;5032196;28;9259;-65
2022/06/15 01:41:45;;;;;;;;;3.00;2.00;;;;;16.55;61.01;102000.84;5007010;28;8939;-65
2022/06/15 01:44:18;;;;;;;;;2.00;2.00;;;;;16.53;61.16;101993.97;5020431;28;9274;-66
2022/06/15 01:46:47;;;;;;;;;2.00;2.00;;;;;16.53;61.36;101993.97;5012113;28;9021;-66
2022/06/15 01:49:29;;;;;;;;;1.25;1.25;;;;;16.53;61.51;101992.06;5017895;28;9007;-66
2022/06/15 01:52:00;;;;;;;;;3.00;2.33;;;;;16.53;61.49;101988.53;5013352;28;10107;-66
2022/06/15 01:54:30;;;;;;;;;2.00;2.00;;;;;16.54;61.70;101980.16;5002837;28;9255;-66
2022/06/15 01:56:59;;;;;;;;;2.67;2.67;;;;;16.55;61.50;101991.84;5027549;28;9162;-65
2022/06/15 01:59:50;;;;;;;;;3.33;3.00;;;;;16.53;61.51;101996.69;5025877;28;8945;-66
2022/06/15 02:02:26;;;;;;;;;3.33;3.33;;;;;16.47;61.91;101982.00;4995721;28;9197;-66
2022/06/15 02:05:12;;;;;;;;;5.00;4.00;;;;;16.48;61.82;101982.84;5013657;28;9088;-68
2022/06/15 02:07:55;;;;;;;;;2.00;2.00;;;;;16.48;61.91;101974.69;5000184;28;9109;-66
2022/06/15 02:10:32;;;;;;;;;7.00;4.00;;;;;16.47;61.97;101965.69;5011722;28;8925;-66
2022/06/15 02:13:15;;;;;;;;;6.33;5.00;;;;;16.46;62.22;101964.03;5022883;28;9106;-66
2022/06/15 02:15:49;;;;;;;;;2.00;2.00;;;;;16.45;62.05;101958.81;5012633;28;9184;-66
2022/06/15 02:18:20;;;;;;;;;3.33;3.00;;;;;16.41;62.30;101957.56;5013374;28;8932;-66
2022/06/15 02:20:51;;;;;;;;;4.00;3.33;;;;;16.38;62.13;101952.53;5029234;28;9756;-66
2022/06/15 02:23:22;;;;;;;;;4.00;4.00;;;;;16.35;62.20;101951.03;5007085;28;8996;-66
2022/06/15 02:25:52;;;;;;;;;2.67;2.67;;;;;16.30;62.34;101954.38;5007087;28;9902;-67
2022/06/15 02:28:25;;;;;;;;;5.67;5.67;;;;;16.26;62.30;101953.13;5008181;28;9066;-66
2022/06/15 02:30:55;;;;;;;;;3.00;3.00;;;;;16.22;62.73;101951.00;5024124;28;9216;-67
2022/06/15 02:33:30;;;;;;;;;6.33;6.00;;;;;16.18;63.09;101947.88;5033045;28;9094;-66
2022/06/15 02:36:00;;;;;;;;;5.00;5.00;;;;;16.14;62.84;101948.47;5014457;28;9179;-66
2022/06/15 02:38:30;;;;;;;;;5.33;5.33;;;;;16.09;63.03;101945.53;5014545;28;9360;-66
2022/06/15 02:40:57;;;;;;;;;3.00;3.00;;;;;16.02;63.47;101946.34;5000487;28;10017;-66
2022/06/15 02:43:27;;;;;;;;;5.33;5.33;;;;;15.99;63.63;101949.47;5027275;28;9240;-66
2022/06/15 02:45:59;;;;;;;;;4.33;4.33;;;;;15.96;63.85;101946.31;5011245;28;10001;-66
2022/06/15 02:48:32;;;;;;;;;5.33;3.00;;;;;15.93;63.86;101947.56;5009046;28;9327;-66
2022/06/15 02:51:11;;;;;;;;;3.67;3.00;;;;;15.91;63.60;101943.38;4995727;28;9312;-66
2022/06/15 02:53:41;;;;;;;;;5.33;4.33;;;;;15.89;63.63;101942.75;5012740;28;9250;-66
2022/06/15 02:56:12;;;;;;;;;6.33;4.67;;;;;15.87;63.75;101936.69;5003244;28;10107;-66
2022/06/15 02:58:45;;;;;;;;;3.00;3.00;;;;;15.83;63.42;101936.22;4994519;28;9314;-66
2022/06/15 03:01:12;;;;;;;;;7.33;7.33;;;;;15.79;63.36;101940.41;5006187;28;9960;-66
2022/06/15 03:03:39;;;;;;;;;6.00;6.00;;;;;15.76;63.60;101938.94;4999130;28;9235;-66
2022/06/15 03:06:16;;;;;;;;;3.67;2.67;;;;;15.74;63.60;101941.00;5010872;28;9450;-66
2022/06/15 03:08:44;;;;;;;;;6.33;6.00;;;;;15.71;63.72;101935.97;5029269;28;9235;-66
2022/06/15 03:11:24;;;;;;;;;6.25;5.00;;;;;15.70;63.54;101938.91;5006026;28;9391;-66
2022/06/15 03:13:53;;;;;;;;;6.50;6.50;;;;;15.66;63.86;101949.31;5002588;28;9389;-67
2022/06/15 03:16:21;;;;;;;;;5.00;5.00;;;;;15.64;64.07;101945.09;5013942;28;9525;-66
2022/06/15 03:18:48;;;;;;;;;7.50;5.25;;;;;15.61;63.77;101945.50;5013136;28;9376;-66
2022/06/15 03:21:16;;;;;;;;;6.00;6.00;;;;;15.58;63.54;101949.44;5013093;28;9598;-66
2022/06/15 03:23:43;;;;;;;;;5.75;5.25;;;;;15.55;63.99;101944.41;5005356;28;9543;-66
2022/06/15 03:26:12;;;;;;;;;6.00;5.50;;;;;15.52;64.27;101945.66;5008316;28;9401;-66
2022/06/15 03:28:39;;;;;;;;;5.50;4.75;;;;;15.51;64.27;101941.25;5003218;28;9560;-66
2022/06/15 03:31:10;;;;;;;;;3.25;3.25;;;;;15.49;64.00;101946.06;5010483;28;9504;-65
2022/06/15 03:33:38;;;;;;;;;6.25;6.00;;;;;15.47;64.26;101952.72;5013057;28;10252;-64
2022/06/15 03:36:09;;;;;;;;;6.00;6.00;;;;;15.43;64.32;101944.13;4995750;28;9683;-65
2022/06/15 03:38:36;;;;;;;;;3.00;3.00;;;;;15.41;64.38;101943.50;5012774;28;9512;-64
2022/06/15 03:41:17;;;;;;;;;3.50;3.50;;;;;15.40;64.30;101943.72;5007730;28;9382;-66
2022/06/15 03:43:43;;;;;;;;;5.00;3.00;;;;;15.39;64.14;101956.41;5004416;28;9443;-67
2022/06/15 03:46:12;;;;;;;;;5.00;3.75;;;;;15.36;64.47;101951.41;5006370;28;9470;-64
2022/06/15 03:48:41;;;;;;;;;5.75;5.75;;;;;15.34;64.25;101951.59;5025067;28;9509;-64
2022/06/15 03:51:09;;;;;;;;;5.25;5.25;;;;;15.33;64.33;101955.34;5006771;28;9378;-65
2022/06/15 03:53:55;;;;;;;;;7.25;5.00;;;;;15.31;64.54;101956.56;5012411;28;9391;-66
2022/06/15 03:56:22;;;;;;;;;6.00;6.00;;;;;15.31;64.48;101957.44;5007985;28;9453;-65
2022/06/15 03:58:49;;;;;;;;;2.75;2.75;;;;;15.30;64.80;101954.91;5014190;28;10232;-65
2022/06/15 04:01:18;;;;;;;;;5.00;5.00;;;;;15.29;64.61;101953.25;5012785;28;10310;-65
2022/06/15 04:03:45;;;;;;;;;6.00;6.00;;;;;15.28;64.84;101954.28;5005578;28;9275;-65
2022/06/15 04:06:14;;;;;;;;;4.50;4.50;;;;;15.35;64.87;101952.44;5013459;28;9285;-65
2022/06/15 04:08:47;;;;;;;;;2.00;2.00;;;;;15.53;64.73;101951.94;5012067;28;9477;-65
2022/06/15 04:14:35;;;;;;;;;4.00;2.25;;;;;15.54;64.00;101948.16;5006782;28;9424;-65
2022/06/15 04:17:11;;;;;;;;;6.00;5.00;;;;;15.50;64.18;101955.03;5010324;28;9524;-64
2022/06/15 04:22:51;;;;;;;;;3.00;3.00;;;;;15.42;64.65;101947.06;5011132;28;10127;-65
2022/06/15 04:25:18;;;;;;;;;4.00;3.00;;;;;15.40;64.95;101946.44;5031421;28;9341;-65
2022/06/15 04:27:44;;;;;;;;;5.50;5.25;;;;;15.41;64.90;101945.38;5013424;28;9463;-65
2022/06/15 04:30:13;;;;;;;;;5.00;4.75;;;;;15.39;64.96;101950.16;5030098;28;9492;-64
2022/06/15 04:32:48;;;;;;;;;8.25;5.25;;;;;15.42;65.19;101947.06;5009153;28;9387;-65
2022/06/15 04:35:22;;;;;;;;;4.00;3.00;;;;;15.42;65.24;101947.06;5030184;28;9533;-66
2022/06/15 04:37:49;;;;;;;;;2.33;2.00;;;;;15.45;65.18;101950.22;5004399;28;10217;-65
2022/06/15 04:40:24;;;;;;;;;3.00;3.00;;;;;15.49;65.16;101956.09;5030314;28;9396;-64
2022/06/15 04:42:50;;;;;;;;;4.75;4.75;;;;;15.53;65.07;101951.94;5007149;28;9287;-65
2022/06/15 04:45:18;;;;;;;;;6.75;5.50;;;;;15.56;64.91;101951.53;5001261;28;9392;-65
2022/06/15 04:47:59;;;;;;;;;6.25;5.75;;;;;15.61;65.03;101954.47;5005136;28;9482;-65
2022/06/15 04:50:27;;;;;;;;;3.00;2.00;;;;;15.64;64.78;101939.66;5006511;28;9553;-65
2022/06/15 04:52:56;;;;;;;;;6.00;4.67;;;;;15.69;64.92;101953.53;5005693;28;9326;-65
2022/06/15 04:55:24;;;;;;;;;3.67;3.67;;;;;15.72;64.81;101953.97;5014314;28;9326;-65
2022/06/15 04:57:57;;;;;;;;;4.33;4.33;;;;;15.75;64.63;101950.81;5013701;28;9458;-65
2022/06/15 05:00:29;;;;;;;;;4.00;4.00;;;;;15.82;64.40;101956.28;5004877;28;9393;-66
2022/06/15 05:02:56;;;;;;;;;6.00;5.00;;;;;15.86;64.00;101943.97;5013590;28;9313;-65
2022/06/15 05:05:24;;;;;;;;;4.67;2.33;;;;;15.89;63.79;101959.88;5030904;28;9448;-65
2022/06/15 05:07:52;;;;;;;;;5.33;2.33;;;;;15.93;63.69;101954.88;5007359;28;9243;-65
2022/06/15 05:10:22;;;;;;;;;4.00;4.00;;;;;15.96;63.36;101957.19;5029076;28;9313;-65
2022/06/15 05:12:51;;;;;;;;;5.00;5.00;;;;;15.98;63.16;101950.50;5000648;28;9159;-64
2022/06/15 05:15:20;;;;;;;;;4.67;3.33;;;;;15.94;62.79;101956.56;5014583;28;9456;-66
2022/06/15 05:17:51;;;;;;;;;3.00;3.00;;;;;15.95;62.42;101955.50;4992582;28;9317;-65
2022/06/15 05:20:18;;;;;;;;;5.33;5.33;;;;;15.97;62.56;101957.00;5019190;28;9172;-64
2022/06/15 05:22:56;;;;;;;;;3.00;3.00;;;;;16.02;62.28;101959.09;5005327;28;9252;-64
2022/06/15 05:25:43;;;;;;;;;5.00;3.33;;;;;16.13;62.25;101960.41;5030739;28;9181;-64
2022/06/15 05:28:12;;;;;;;;;4.67;4.67;;;;;16.21;61.91;101955.63;5013541;28;9164;-64
2022/06/15 05:30:39;;;;;;;;;2.00;2.00;;;;;16.29;61.21;101957.31;4997475;28;9330;-65
2022/06/15 05:33:09;;;;;;;;;7.67;6.33;;;;;16.48;61.15;101951.06;4994439;28;9073;-65
2022/06/15 05:35:36;;;;;;;;;5.33;5.33;;;;;16.71;60.57;101961.56;5020444;28;9158;-65
2022/06/15 05:38:03;;;;;;;;;5.33;1.33;;;;;16.99;60.65;101961.41;5029132;28;9154;-65
2022/06/15 05:40:30;;;;;;;;;3.75;3.00;;;;;17.31;59.77;101964.31;5001395;28;8920;-65
2022/06/15 05:42:56;;;;;;;;;2.00;2.00;;;;;17.52;58.60;101957.78;5011079;28;8826;-64
2022/06/15 05:45:24;;;;;;;;;6.00;5.00;;;;;17.70;58.16;101957.94;5012692;28;8865;-65
2022/06/15 05:47:51;;;;;;;;;5.50;4.00;;;;;17.83;57.02;101959.81;5024218;28;8934;-65
2022/06/15 05:50:41;;;;;;;;;4.00;3.75;;;;;17.96;57.64;101958.94;5019585;28;8826;-65
2022/06/15 05:53:14;;;;;;;;;6.67;4.33;;;;;17.99;56.56;101962.06;5015904;28;8825;-64
2022/06/15 05:55:40;;;;;;;;;5.00;2.00;;;;;17.98;56.43;101959.53;5032220;28;8992;-65
2022/06/15 05:58:07;;;;;;;;;6.25;5.75;;;;;17.93;56.07;101964.81;5024387;28;8931;-65
2022/06/15 06:00:33;;;;;;;;;4.50;4.50;;;;;17.90;56.39;101971.50;5025348;28;8838;-65
2022/06/15 06:03:00;;;;;;;;;4.00;4.00;;;;;17.93;56.47;101971.09;5025747;28;8837;-64
2022/06/15 06:05:27;;;;;;;;;5.00;5.00;;;;;17.93;56.51;101973.81;5028381;28;8927;-65
2022/06/15 06:07:54;;;;;;;;;7.67;7.67;;;;;17.90;55.55;101971.50;5025948;28;9553;-66
2022/06/15 06:10:21;;;;;;;;;4.00;4.00;;;;;17.82;56.22;101968.19;5026309;28;8994;-65
2022/06/15 06:12:47;;;;;;;;;5.00;5.00;;;;;17.84;56.41;101969.66;5029475;28;9007;-66
2022/06/15 06:15:14;;;;;;;;;3.00;3.00;;;;;17.84;56.77;101966.09;5025521;28;8992;-66
2022/06/15 06:17:40;;;;;;;;;3.00;3.00;;;;;17.87;56.54;101968.41;5021574;28;9770;-65
2022/06/15 06:20:08;;;;;;;;;4.33;4.33;;;;;17.87;56.66;101969.22;5022549;28;8830;-66
2022/06/15 06:22:34;;;;;;;;;3.00;3.00;;;;;17.89;56.71;101974.44;5019896;28;8953;-66
2022/06/15 06:25:01;;;;;;;;;4.50;4.50;;;;;17.86;56.41;101970.25;5021865;28;8906;-66
2022/06/15 06:27:30;;;;;;;;;4.00;3.50;;;;;17.88;56.72;101973.63;5026483;28;9167;-66
2022/06/15 06:29:58;;;;;;;;;5.67;4.67;;;;;17.89;56.38;101969.84;5025877;28;8845;-67
2022/06/15 06:32:24;;;;;;;;;5.33;4.33;;;;;17.86;56.42;101977.59;5031921;28;8928;-66
2022/06/15 06:34:51;;;;;;;;;4.75;4.75;;;;;17.86;57.04;101977.59;5023674;28;8944;-67
2022/06/15 06:37:18;;;;;;;;;6.00;6.00;;;;;17.84;56.39;101969.66;5018871;28;8956;-66
2022/06/15 06:39:44;;;;;;;;;8.00;6.33;;;;;17.75;55.28;101974.50;5020136;28;9088;-67
2022/06/15 06:42:11;;;;;;;;;5.33;5.33;;;;;17.66;55.94;101972.19;5020663;28;9819;-67
2022/06/15 06:44:42;;;;;;;;;5.33;5.33;;;;;17.66;55.60;101978.50;5003345;28;9109;-67
2022/06/15 06:47:09;;;;;;;;;3.00;3.00;;;;;17.70;55.97;101981.59;5027161;28;9101;-67
2022/06/15 06:49:37;;;;;;;;;4.00;4.00;;;;;17.74;55.63;101985.56;5025785;28;8927;-67
2022/06/15 06:52:04;;;;;;;;;4.00;4.00;;;;;17.77;55.91;101980.56;5031348;28;8834;-67
2022/06/15 06:54:31;;;;;;;;;6.00;5.00;;;;;17.77;55.04;101985.19;5026439;28;8903;-67
2022/06/15 06:56:58;;;;;;;;;3.00;3.00;;;;;17.82;55.67;101981.81;5015261;28;8932;-66
2022/06/15 06:59:33;;;;;;;;;7.00;4.25;;;;;17.89;55.50;101988.91;5015861;28;8924;-69
2022/06/15 07:02:00;;;;;;;;;7.00;3.67;;;;;17.94;55.28;101988.25;5022902;28;8951;-65
2022/06/15 07:04:26;;;;;;;;;8.00;6.00;;;;;17.93;55.07;101995.59;5029318;28;9769;-66
2022/06/15 07:06:56;;;;;;;;;6.00;6.00;;;;;17.98;55.02;101994.94;5029939;28;8933;-65
2022/06/15 07:09:22;;;;;;;;;5.00;5.00;;;;;17.99;55.27;101994.75;5029237;28;8864;-66
2022/06/15 07:11:49;;;;;;;;;5.00;4.33;;;;;18.01;54.93;101999.97;5028678;28;9008;-67
2022/06/15 07:14:15;;;;;;;;;5.67;5.67;;;;;18.00;54.95;102004.59;5027052;28;9646;-68
2022/06/15 07:16:42;;;;;;;;;6.33;6.33;;;;;18.04;55.47;102011.28;5022619;28;9059;-65
2022/06/15 07:19:09;;;;;;;;;4.00;3.00;;;;;18.11;55.39;102011.28;5020103;28;8934;-67
2022/06/15 07:21:38;;;;;;;;;8.00;6.00;;;;;18.13;54.44;102008.31;5020262;28;8939;-66
2022/06/15 07:24:05;;;;;;;;;5.67;5.67;;;;;18.10;54.49;102006.00;5028497;28;8895;-67
2022/06/15 07:26:36;;;;;;;;;6.00;6.00;;;;;18.11;55.14;102014.00;5011699;28;9039;-67
2022/06/15 07:29:03;;;;;;;;;6.25;4.00;;;;;18.13;55.08;102008.31;5019819;28;8814;-68
2022/06/15 07:31:36;;;;;;;;;6.75;6.25;;;;;18.14;54.55;102010.81;5008598;28;8848;-67
2022/06/15 07:34:03;;;;;;;;;3.50;3.00;;;;;18.17;54.63;102015.84;5001468;28;8924;-64
2022/06/15 07:36:35;;;;;;;;;6.00;6.00;;;;;18.22;54.51;102021.47;5010654;28;8840;-67
2022/06/15 07:39:03;;;;;;;;;7.67;4.67;;;;;18.21;54.31;102019.81;5013389;28;11205;-67
2022/06/15 07:41:30;;;;;;;;;5.25;5.00;;;;;18.22;54.38;102018.75;5016714;28;8950;-66
2022/06/15 07:43:56;;;;;;;;;5.00;5.00;;;;;18.26;53.56;102027.34;5025173;28;8828;-66
2022/06/15 07:46:23;;;;;;;;;7.00;7.00;;;;;18.24;53.02;102024.84;5025124;28;8940;-67
2022/06/15 07:51:46;;;;;;;;;11.33;9.00;;;;;18.26;52.79;102019.97;5025657;28;9537;-65
2022/06/15 07:54:16;;;;;;;;;7.33;7.33;;;;;18.25;53.56;102021.03;5014657;28;8987;-67
2022/06/15 07:56:44;;;;;;;;;7.25;5.25;;;;;18.28;53.53;102022.50;5015436;28;8926;-67
2022/06/15 07:59:12;;;;;;;;;7.33;7.33;;;;;18.29;53.37;102019.56;5020548;28;8927;-66
2022/06/15 08:01:39;;;;;;;;;4.75;3.50;;;;;18.35;53.40;102022.47;5020705;28;9016;-66
2022/06/15 08:04:06;;;;;;;;;6.00;4.75;;;;;18.41;53.37;102022.44;5014735;28;8868;-67
2022/06/15 08:06:35;;;;;;;;;7.00;4.00;;;;;18.48;54.41;102022.41;5021583;28;9001;-66
2022/06/15 08:09:02;;;;;;;;;6.00;6.00;;;;;18.56;54.12;102024.88;5014118;28;9684;-67
2022/06/15 08:11:28;;;;;;;;;8.00;8.00;;;;;18.61;53.84;102026.97;5019051;28;8914;-67
2022/06/15 08:13:55;;;;;;;;;6.75;6.25;;;;;18.62;53.76;102029.44;5018241;28;8925;-66
2022/06/15 08:16:22;;;;;;;;;7.25;7.00;;;;;18.59;53.39;102026.31;5029511;28;8853;-66
2022/06/15 08:18:53;;;;;;;;;8.00;7.00;;;;;18.63;53.08;102031.13;5011675;28;8836;-66
2022/06/15 08:21:24;;;;;;;;;7.25;4.00;;;;;18.66;54.04;102024.41;5015477;28;8936;-67
2022/06/15 08:23:53;;;;;;;;;7.00;6.00;;;;;18.65;53.40;102022.75;5019295;28;8852;-66
2022/06/15 08:26:23;;;;;;;;;3.75;3.50;;;;;18.73;53.88;102020.63;5015835;28;8833;-66
2022/06/15 08:28:53;;;;;;;;;6.75;5.50;;;;;18.78;53.58;102020.78;4998132;28;8860;-67
2022/06/15 08:31:20;;;;;;;;;6.25;6.25;;;;;18.80;53.45;102025.16;5012811;28;8852;-65
2022/06/15 08:33:46;;;;;;;;;5.50;5.50;;;;;18.80;53.26;102030.63;5018778;28;8958;-64
2022/06/15 08:36:17;;;;;;;;;7.50;7.50;;;;;18.78;52.72;102028.13;5018591;28;8829;-64
2022/06/15 08:38:44;;;;;;;;;7.00;7.00;;;;;18.81;52.90;102030.44;5020801;28;8820;-66
2022/06/15 08:41:25;;;;;;;;;4.75;4.75;;;;;18.85;52.68;102030.81;5017129;28;8921;-65
2022/06/15 08:44:21;;;;;;;;;7.75;6.25;;;;;18.88;52.70;102028.50;5012487;28;8836;-65
2022/06/15 08:47:15;;;;;;;;;5.50;4.75;;;;;18.91;52.48;102017.13;5009762;28;8829;-65
2022/06/15 08:50:06;;;;;;;;;8.50;7.00;;;;;19.04;52.48;102013.47;5025493;28;8872;-66
2022/06/15 08:52:45;;;;;;;;;8.25;7.00;;;;;19.10;51.56;102015.31;5028349;28;9605;-65
2022/06/15 08:55:32;;;;;;;;;6.25;6.25;;;;;19.06;51.66;102016.81;5019924;28;9656;-64
2022/06/15 08:58:21;;;;;;;;;11.67;9.33;;;;;18.99;52.79;102011.38;5017697;28;8855;-66
2022/06/15 09:00:53;;;;;;;;;8.50;8.50;;;;;19.00;53.33;102017.72;5022602;28;8917;-65
2022/06/15 09:03:58;;;;;;;;;6.25;4.75;;;;;19.07;53.77;102014.91;5009558;28;8863;-65
2022/06/15 09:07:09;;;;;;;;;10.75;9.25;;;;;19.17;53.17;102016.09;5019401;28;8829;-67
2022/06/15 09:09:56;;;;;;;;;7.00;6.75;;;;;19.29;53.40;102023.56;5019544;28;8841;-66
2022/06/15 09:15:14;;;;;;;;;8.25;7.75;;;;;19.42;51.89;102016.06;5019727;28;8888;-67
2022/06/15 09:17:40;;;;;;;;;12.50;9.25;;;;;19.53;51.55;102011.78;5023876;28;8820;-67
2022/06/15 09:20:24;;;;;;;;;7.25;6.00;;;;;19.55;50.30;102008.81;5013957;28;8830;-66
2022/06/15 09:22:56;;;;;;;;;8.25;7.50;;;;;19.60;51.28;102008.97;5012465;28;8840;-67
2022/06/15 09:25:29;;;;;;;;;5.50;5.50;;;;;19.68;51.67;102006.81;5024984;28;8842;-67
2022/06/15 09:28:04;;;;;;;;;8.50;7.50;;;;;19.82;52.04;102012.16;5031776;28;8834;-66
2022/06/15 09:30:33;;;;;;;;;4.50;4.00;;;;;19.86;51.42;102000.53;5022089;28;8844;-67
2022/06/15 09:33:14;;;;;;;;;8.00;7.50;;;;;19.97;50.88;101999.78;5022766;28;8918;-66
2022/06/15 09:35:46;;;;;;;;;4.00;4.00;;;;;20.06;50.05;102002.19;5020560;28;8915;-66
2022/06/15 09:38:14;;;;;;;;;5.50;5.50;;;;;20.12;49.88;101993.06;5032358;28;8834;-67
2022/06/15 09:40:52;;;;;;;;;5.00;5.00;;;;;20.00;47.73;101993.81;5032031;28;8911;-68
2022/06/15 09:43:43;;;;;;;;;5.00;5.00;;;;;20.01;48.76;101997.38;5023901;28;8844;-67
2022/06/15 09:46:38;;;;;;;;;7.25;4.50;;;;;20.09;49.66;102001.72;5022121;28;8833;-67
2022/06/15 09:49:21;;;;;;;;;6.50;6.50;;;;;20.14;49.99;102001.88;5015793;28;8838;-67
2022/06/15 09:52:11;;;;;;;;;5.25;5.25;;;;;20.15;48.64;101992.59;5026456;28;8880;-67
2022/06/15 09:54:53;;;;;;;;;4.00;4.00;;;;;20.17;48.48;101987.72;5029181;28;8841;-67
2022/06/15 09:57:20;;;;;;;;;5.75;4.00;;;;;20.20;47.61;101990.84;5023068;28;8848;-66
2022/06/15 09:59:47;;;;;;;;;2.00;2.00;;;;;20.28;47.49;101995.16;5025925;28;8895;-66
2022/06/15 10:02:26;;;;;;;;;7.00;5.75;;;;;20.30;46.30;101994.94;5027200;28;8834;-67
2022/06/15 10:04:53;;;;;;;;;6.00;6.00;;;;;20.22;46.35;101996.94;5025654;28;8822;-66
2022/06/15 10:07:29;;;;;;;;;4.25;4.25;;;;;20.18;46.21;101987.53;5031824;28;8963;-66
2022/06/15 10:10:13;;;;;;;;;10.00;7.75;;;;;20.19;46.07;101999.28;5023775;28;8841;-67
2022/06/15 10:12:56;;;;;;;;;4.00;3.50;;;;;20.18;46.28;102000.34;5025244;28;8958;-68
2022/06/15 10:15:40;;;;;;;;;5.00;5.00;;;;;20.19;46.59;102005.59;5021307;28;8896;-65
2022/06/15 10:18:16;;;;;;;;;7.33;7.33;;;;;20.15;44.85;102004.38;4999359;28;8918;-66
2022/06/15 10:20:55;;;;;;;;;4.00;4.00;;;;;20.10;44.93;101998.78;5021513;28;8931;-66
2022/06/15 10:23:29;;;;;;;;;5.00;5.00;;;;;20.16;45.18;101992.38;5021421;28;8903;-66
2022/06/15 10:25:56;;;;;;;;;7.50;3.00;;;;;20.25;44.99;102001.09;5018303;28;8828;-65
2022/06/15 10:28:39;;;;;;;;;4.75;4.75;;;;;20.27;44.13;101996.22;5012270;28;8824;-67
2022/06/15 10:31:13;;;;;;;;;5.00;5.00;;;;;20.29;43.60;101998.72;5020599;28;8846;-66
2022/06/15 10:33:46;;;;;;;;;2.25;2.25;;;;;20.29;43.82;101996.81;5020450;28;8860;-66
2022/06/15 10:36:30;;;;;;;;;6.50;3.25;;;;;20.37;43.36;102003.88;5028306;28;8899;-65
2022/06/15 10:39:17;;;;;;;;;6.00;4.25;;;;;20.36;43.97;102000.31;5017399;28;9524;-67
2022/06/15 10:42:08;;;;;;;;;6.00;5.25;;;;;20.44;44.52;102005.47;5016480;28;8944;-67
2022/06/15 10:44:40;;;;;;;;;3.50;3.50;;;;;20.47;44.44;102001.44;5021054;28;8941;-67
2022/06/15 10:47:20;;;;;;;;;5.00;3.50;;;;;20.49;44.12;101996.59;5025051;28;8865;-66
2022/06/15 10:49:54;;;;;;;;;6.50;6.50;;;;;20.55;44.07;102008.50;5026273;28;8829;-67
2022/06/15 10:52:34;;;;;;;;;6.25;5.75;;;;;20.47;43.89;101996.78;5023540;28;8912;-66
2022/06/15 11:04:37;;;;;;;;;4.00;4.00;;;;;20.78;44.06;101988.56;5020838;28;9555;-65
2022/06/15 11:07:11;;;;;;;;;4.00;4.00;;;;;20.85;44.60;102000.25;5021123;28;8911;-65
2022/06/15 11:09:59;;;;;;;;;3.00;3.00;;;;;20.93;44.87;101991.72;5022184;28;8912;-65
2022/06/15 11:12:38;;;;;;;;;7.00;6.00;;;;;20.99;44.26;101999.00;5023256;28;8862;-66
2022/06/15 11:15:12;;;;;;;;;7.00;7.00;;;;;20.92;44.50;101990.06;5024198;28;8829;-66
2022/06/15 11:18:03;;;;;;;;;6.25;6.25;;;;;20.94;44.30;101988.75;5018283;28;8868;-66
2022/06/15 11:20:54;;;;;;;;;9.25;7.75;;;;;20.91;44.46;101989.22;5019294;28;8852;-66
2022/06/15 11:23:36;;;;;;;;;6.00;6.00;;;;;20.93;45.01;101987.06;5019793;28;8860;-65
2022/06/15 11:29:21;;;;;;;;;5.75;5.75;;;;;21.03;45.71;101983.78;5023252;28;8909;-66
2022/06/15 11:32:10;;;;;;;;;5.00;5.00;;;;;21.12;45.24;101976.03;5022093;28;8866;-65
2022/06/15 11:34:46;;;;;;;;;5.50;4.75;;;;;21.19;45.04;101974.03;4996014;28;8868;-65
2022/06/15 11:37:19;;;;;;;;;5.00;4.00;;;;;21.23;44.82;101975.22;5014113;28;8832;-68
2022/06/15 11:39:56;;;;;;;;;8.50;6.50;;;;;21.26;45.16;101971.16;5026603;28;8817;-65
2022/06/15 11:42:24;;;;;;;;;8.00;8.00;;;;;21.22;45.08;101968.03;5020798;28;8852;-65
2022/06/15 11:44:51;;;;;;;;;6.50;5.00;;;;;21.21;44.80;101975.44;5022792;28;8846;-65
2022/06/15 11:47:33;;;;;;;;;4.50;4.50;;;;;21.23;44.69;101975.22;5014321;28;8840;-66
2022/06/15 11:50:27;;;;;;;;;6.50;6.50;;;;;21.26;45.65;101969.25;5017564;28;9115;-66
2022/06/15 11:53:09;;;;;;;;;5.75;5.75;;;;;21.34;46.65;101963.44;5018691;28;8833;-68
2022/06/15 11:55:41;;;;;;;;;6.75;4.25;;;;;21.38;47.15;101972.00;5021675;28;8895;-67
2022/06/15 11:58:21;;;;;;;;;8.50;7.25;;;;;21.43;46.17;101972.13;5022741;28;8927;-67
2022/06/15 12:01:04;;;;;;;;;8.25;7.25;;;;;21.39;45.96;101965.44;5022366;28;8834;-67
2022/06/15 12:04:07;;;;;;;;;6.50;4.50;;;;;21.43;46.27;101977.59;5018944;28;8850;-66
2022/06/15 12:07:05;;;;;;;;;12.50;8.00;;;;;21.33;45.48;101963.69;5018369;28;8833;-66
2022/06/15 12:09:50;;;;;;;;;7.50;6.50;;;;;21.20;46.32;101959.25;5020067;28;8938;-66
2022/06/15 12:12:37;;;;;;;;;6.50;6.50;;;;;21.29;47.10;101954.25;5023461;28;8838;-65
2022/06/15 12:15:15;;;;;;;;;7.00;7.00;;;;;21.39;46.56;101946.28;5022681;28;8944;-64
2022/06/15 12:18:07;;;;;;;;;4.00;4.00;;;;;21.52;46.04;101957.00;5015638;28;9603;-67
2022/06/15 12:20:58;;;;;;;;;5.00;5.00;;;;;21.61;45.66;101963.78;5019014;28;8856;-67
2022/06/15 12:23:39;;;;;;;;;10.00;6.50;;;;;21.63;43.92;101977.22;5018099;28;9637;-67
2022/06/15 12:26:29;;;;;;;;;5.00;4.75;;;;;21.64;44.82;101970.69;5024076;28;8818;-66
2022/06/15 12:29:14;;;;;;;;;7.25;6.00;;;;;21.76;45.38;101967.94;5026398;28;8907;-68